createdAt,value
2023-02-11T00:01:09.363Z,1.40
2023-02-11T00:03:37.077Z,1.50
2023-02-11T00:06:09.307Z,1.50
2023-02-11T00:08:36.884Z,1.40
2023-02-11T00:11:04.754Z,1.30
2023-02-11T00:13:31.579Z,1.30
2023-02-11T00:15:58.697Z,1.30
2023-02-11T00:18:25.462Z,1.50
2023-02-11T00:20:52.566Z,1.50
2023-02-11T00:23:19.684Z,1.60
2023-02-11T00:25:46.511Z,1.50
2023-02-11T00:28:13.750Z,1.40
2023-02-11T00:30:41.162Z,1.40
2023-02-11T00:33:11.959Z,1.40
2023-02-11T00:35:38.774Z,1.50
2023-02-11T00:38:05.618Z,1.60
2023-02-11T00:40:32.970Z,1.50
2023-02-11T00:42:59.841Z,1.50
2023-02-11T00:45:27.117Z,1.60
2023-02-11T00:47:53.833Z,1.70
2023-02-11T00:50:20.734Z,1.80
2023-02-11T00:52:48.005Z,1.90
2023-02-11T00:55:15.502Z,1.70
2023-02-11T00:57:42.869Z,2.00
2023-02-11T01:00:11.762Z,2.10
2023-02-11T01:02:38.888Z,2.20
2023-02-11T01:05:06.317Z,2.40
2023-02-11T01:07:33.521Z,2.40
2023-02-11T01:10:00.583Z,2.20
2023-02-11T01:12:27.799Z,2.20
2023-02-11T01:14:54.545Z,2.20
2023-02-11T01:17:21.283Z,2.20
2023-02-11T01:19:48.110Z,2.00
2023-02-11T01:22:15.299Z,1.90
2023-02-11T01:24:42.047Z,1.80
2023-02-11T01:27:09.282Z,1.70
2023-02-11T01:29:36.558Z,1.80
2023-02-11T01:32:03.352Z,1.60
2023-02-11T01:34:30.125Z,1.40
2023-02-11T01:36:58.985Z,1.60
2023-02-11T01:39:27.023Z,1.60
2023-02-11T01:41:54.183Z,1.60
2023-02-11T01:44:32.551Z,1.70
2023-02-11T01:46:59.944Z,1.80
2023-02-11T01:49:31.844Z,1.80
2023-02-11T01:52:25.631Z,1.90
2023-02-11T01:55:21.983Z,1.90
2023-02-11T01:57:53.976Z,1.80
2023-02-11T02:00:25.450Z,1.90
2023-02-11T02:03:00.647Z,2.00
2023-02-11T02:05:27.383Z,1.90
2023-02-11T02:08:19.366Z,1.90
2023-02-11T02:10:48.939Z,1.70
2023-02-11T02:13:16.453Z,1.80
2023-02-11T02:15:54.350Z,1.90
2023-02-11T02:18:48.963Z,2.00
2023-02-11T02:21:30.946Z,2.10
2023-02-11T02:24:22.373Z,2.00
2023-02-11T02:27:24.313Z,2.00
2023-02-11T02:29:59.322Z,2.10
2023-02-11T02:32:33.702Z,2.10
2023-02-11T02:35:19.092Z,2.20
2023-02-11T02:37:56.392Z,2.10
2023-02-11T02:40:33.648Z,2.20
2023-02-11T02:43:02.248Z,2.30
2023-02-11T02:45:29.634Z,2.30
2023-02-11T02:47:56.542Z,2.30
2023-02-11T02:50:30.734Z,2.50
2023-02-11T02:53:00.483Z,2.40
2023-02-11T02:56:03.018Z,2.40
2023-02-11T02:58:48.106Z,2.50
2023-02-11T03:01:23.445Z,2.50
2023-02-11T03:04:08.739Z,2.40
2023-02-11T03:06:47.696Z,2.30
2023-02-11T03:09:34.517Z,2.50
2023-02-11T03:12:03.730Z,2.30
2023-02-11T03:14:32.246Z,2.20
2023-02-11T03:17:03.780Z,2.00
2023-02-11T03:19:51.645Z,2.00
2023-02-11T03:22:24.765Z,2.00
2023-02-11T03:24:51.848Z,2.10
2023-02-11T03:27:25.896Z,2.10
2023-02-11T03:30:05.704Z,2.20
2023-02-11T03:32:38.469Z,2.20
2023-02-11T03:35:21.599Z,2.30
2023-02-11T03:37:56.013Z,2.30
2023-02-11T03:40:27.761Z,2.40
2023-02-11T03:43:17.602Z,2.50
2023-02-11T03:45:46.554Z,2.40
2023-02-11T03:48:18.630Z,2.60
2023-02-11T03:50:47.474Z,2.60
2023-02-11T03:53:16.410Z,2.60
2023-02-11T03:55:43.894Z,2.70
2023-02-11T03:58:11.243Z,2.80
2023-02-11T04:00:41.360Z,2.90
2023-02-11T04:03:10.239Z,3.00
2023-02-11T04:05:37.328Z,3.00
2023-02-11T04:08:04.867Z,2.90
2023-02-11T04:10:32.170Z,3.00
2023-02-11T04:12:58.987Z,3.00
2023-02-11T04:15:26.275Z,2.90
2023-02-11T04:17:53.200Z,2.90
2023-02-11T04:20:20.052Z,2.80
2023-02-11T04:22:47.234Z,2.80
2023-02-11T04:25:14.348Z,2.70
2023-02-11T04:27:41.626Z,2.70
2023-02-11T04:30:09.279Z,2.60
2023-02-11T04:32:36.740Z,2.60
2023-02-11T04:35:04.126Z,2.40
2023-02-11T04:37:33.793Z,2.60
2023-02-11T04:40:00.536Z,2.80
2023-02-11T04:42:29.159Z,2.70
2023-02-11T04:44:55.938Z,2.70
2023-02-11T04:47:23.182Z,2.60
2023-02-11T04:49:49.939Z,2.60
2023-02-11T04:52:16.786Z,2.70
2023-02-11T04:54:43.609Z,2.60
2023-02-11T04:57:10.752Z,2.60
2023-02-11T04:59:38.032Z,2.50
2023-02-11T05:02:04.824Z,2.40
2023-02-11T05:04:32.210Z,2.50
2023-02-11T05:06:58.949Z,2.60
2023-02-11T05:09:25.765Z,2.60
2023-02-11T05:11:54.133Z,2.70
2023-02-11T05:14:21.285Z,2.80
2023-02-11T05:16:48.153Z,2.80
2023-02-11T05:19:14.943Z,2.90
2023-02-11T05:21:50.426Z,2.80
2023-02-11T05:24:24.012Z,2.80
2023-02-11T05:26:50.750Z,2.80
2023-02-11T05:29:17.506Z,2.70
2023-02-11T05:31:44.663Z,2.60
2023-02-11T05:34:11.428Z,2.70
2023-02-11T05:36:38.186Z,2.70
2023-02-11T05:39:04.962Z,2.70
2023-02-11T05:41:31.705Z,2.80
2023-02-11T05:43:58.914Z,2.80
2023-02-11T05:46:25.737Z,2.80
2023-02-11T05:48:52.875Z,2.90
2023-02-11T05:51:19.639Z,2.90
2023-02-11T05:53:46.384Z,2.90
2023-02-11T05:56:14.971Z,3.00
2023-02-11T05:58:42.266Z,3.00
2023-02-11T06:01:09.023Z,3.00
2023-02-11T06:03:36.346Z,2.90
2023-02-11T06:06:03.212Z,2.80
2023-02-11T06:08:30.394Z,2.90
2023-02-11T06:10:57.599Z,2.90
2023-02-11T06:13:24.327Z,2.90
2023-02-11T06:16:01.878Z,2.90
2023-02-11T06:18:29.589Z,2.90
2023-02-11T06:20:56.985Z,3.00
2023-02-11T06:23:24.265Z,3.20
2023-02-11T06:25:52.638Z,3.20
2023-02-11T06:28:19.976Z,3.10
2023-02-11T06:30:47.174Z,3.10
2023-02-11T06:33:14.380Z,3.10
2023-02-11T06:35:41.173Z,3.40
2023-02-11T06:38:08.482Z,3.30
2023-02-11T06:40:35.257Z,3.30
2023-02-11T06:43:02.594Z,3.30
2023-02-11T06:45:29.390Z,3.40
2023-02-11T06:47:56.603Z,3.30
2023-02-11T06:50:23.842Z,3.30
2023-02-11T06:52:50.954Z,3.30
2023-02-11T06:55:17.719Z,3.30
2023-02-11T06:57:44.503Z,3.40
2023-02-11T07:00:12.045Z,3.30
2023-02-11T07:02:39.205Z,3.40
2023-02-11T07:05:07.961Z,3.40
2023-02-11T07:07:35.462Z,3.60
2023-02-11T07:10:04.110Z,3.70
2023-02-11T07:12:32.193Z,3.60
2023-02-11T07:14:59.336Z,3.60
2023-02-11T07:17:26.065Z,3.80
2023-02-11T07:19:52.810Z,3.80
2023-02-11T07:22:19.590Z,3.90
2023-02-11T07:24:46.839Z,4.10
2023-02-11T07:27:13.588Z,4.20
2023-02-11T07:29:42.175Z,4.40
2023-02-11T07:32:09.376Z,4.50
2023-02-11T07:34:38.908Z,4.40
2023-02-11T07:37:06.383Z,4.40
2023-02-11T07:39:33.698Z,4.40
2023-02-11T07:42:00.437Z,4.30
2023-02-11T07:44:27.630Z,4.40
2023-02-11T07:46:54.867Z,4.50
2023-02-11T07:49:21.818Z,4.50
2023-02-11T07:51:49.249Z,4.50
2023-02-11T07:54:16.121Z,4.50
2023-02-11T07:56:45.351Z,4.60
2023-02-11T07:59:12.738Z,4.80
2023-02-11T08:01:40.429Z,4.80
2023-02-11T08:04:07.652Z,4.80
2023-02-11T08:06:35.413Z,4.70
2023-02-11T08:09:07.578Z,4.80
2023-02-11T08:11:35.630Z,4.80
2023-02-11T08:14:04.224Z,4.80
2023-02-11T08:16:36.306Z,4.90
2023-02-11T08:19:06.984Z,4.90
2023-02-11T08:21:33.936Z,5.00
2023-02-11T08:24:03.482Z,5.00
2023-02-11T08:26:34.852Z,4.80
2023-02-11T08:29:06.729Z,4.80
2023-02-11T08:31:36.878Z,4.90
2023-02-11T08:34:03.845Z,4.90
2023-02-11T08:36:36.572Z,4.80
2023-02-11T08:39:18.666Z,5.00
2023-02-11T08:41:49.156Z,4.90
2023-02-11T08:44:17.396Z,5.10
2023-02-11T08:46:44.216Z,5.10
2023-02-11T08:49:11.581Z,5.10
2023-02-11T08:51:38.319Z,5.30
2023-02-11T08:54:09.462Z,5.30
2023-02-11T08:56:37.987Z,5.30
2023-02-11T08:59:07.265Z,5.30
2023-02-11T09:01:35.170Z,5.40
2023-02-11T09:04:03.704Z,5.30
2023-02-11T09:06:30.597Z,5.40
2023-02-11T09:08:58.668Z,5.50
2023-02-11T09:11:30.464Z,5.50
2023-02-11T09:13:58.404Z,5.70
2023-02-11T09:16:33.370Z,6.00
2023-02-11T09:19:02.171Z,6.20
2023-02-11T09:21:30.971Z,6.30
2023-02-11T09:23:59.508Z,6.20
2023-02-11T09:26:32.501Z,6.20
2023-02-11T09:29:00.088Z,6.10
2023-02-11T09:31:29.346Z,6.30
2023-02-11T09:34:05.320Z,6.20
2023-02-11T09:36:35.439Z,6.40
2023-02-11T09:39:03.497Z,6.50
2023-02-11T09:42:06.690Z,6.60
2023-02-11T09:44:37.654Z,6.50
2023-02-11T09:47:29.506Z,6.70
2023-02-11T09:50:21.847Z,6.90
2023-02-11T09:53:03.423Z,7.20
2023-02-11T09:55:36.729Z,7.30
2023-02-11T09:58:21.272Z,7.20
2023-02-11T10:01:07.440Z,7.50
2023-02-11T10:04:11.551Z,7.50
2023-02-11T10:06:43.024Z,7.40
2023-02-11T10:09:16.179Z,7.50
2023-02-11T10:12:04.594Z,7.40
2023-02-11T10:15:08.850Z,7.30
2023-02-11T10:18:10.700Z,7.10
2023-02-11T10:21:08.077Z,7.00
2023-02-11T10:23:40.033Z,6.90
2023-02-11T10:26:14.559Z,6.90
2023-02-11T10:28:44.958Z,6.90
2023-02-11T10:31:18.577Z,7.00
2023-02-11T10:33:57.606Z,7.10
2023-02-11T10:36:28.323Z,7.10
2023-02-11T10:38:59.238Z,7.20
2023-02-11T10:41:37.087Z,7.20
2023-02-11T10:44:07.013Z,7.20
2023-02-11T10:46:38.981Z,7.30
2023-02-11T10:49:06.069Z,7.30
2023-02-11T10:51:34.720Z,7.20
2023-02-11T10:54:04.911Z,7.10
2023-02-11T10:56:35.941Z,7.10
2023-02-11T10:59:16.080Z,7.10
2023-02-11T11:01:51.800Z,7.00
2023-02-11T11:04:31.082Z,6.90
2023-02-11T11:07:20.385Z,6.80
2023-02-11T11:10:08.765Z,6.80
2023-02-11T11:12:42.020Z,6.80
2023-02-11T11:15:16.497Z,6.70
2023-02-11T11:17:43.758Z,6.70
2023-02-11T11:20:34.001Z,6.70
2023-02-11T11:23:22.757Z,6.60
2023-02-11T11:26:04.921Z,6.70
2023-02-11T11:28:42.024Z,6.80
2023-02-11T11:31:19.362Z,6.80
2023-02-11T11:33:47.803Z,6.80
2023-02-11T11:36:21.141Z,6.90
2023-02-11T11:38:59.095Z,7.10
2023-02-11T11:41:28.711Z,7.30
2023-02-11T11:43:57.285Z,7.40
2023-02-11T11:46:28.778Z,7.40
2023-02-11T11:49:01.908Z,7.40
2023-02-11T11:51:29.351Z,7.60
2023-02-11T11:54:12.251Z,7.60
2023-02-11T11:57:10.858Z,7.50
2023-02-11T11:59:38.285Z,7.50
2023-02-11T12:02:30.201Z,7.40
2023-02-11T12:05:22.367Z,7.40
2023-02-11T12:08:11.657Z,7.50
2023-02-11T12:10:50.762Z,7.50
2023-02-11T12:13:47.835Z,7.40
2023-02-11T12:16:33.426Z,7.30
2023-02-11T12:19:15.113Z,7.20
2023-02-11T12:21:54.108Z,7.20
2023-02-11T12:24:31.447Z,7.20
2023-02-11T12:27:03.992Z,7.20
2023-02-11T12:29:50.708Z,7.20
2023-02-11T12:32:25.516Z,7.30
2023-02-11T12:35:31.151Z,7.50
2023-02-11T12:38:15.931Z,7.50
2023-02-11T12:40:53.299Z,7.60
2023-02-11T12:43:22.913Z,7.60
2023-02-11T12:46:09.604Z,7.60
2023-02-11T12:48:58.190Z,7.70
2023-02-11T12:51:52.410Z,7.60
2023-02-11T12:54:29.887Z,7.50
2023-02-11T12:57:23.668Z,7.30
2023-02-11T13:00:02.683Z,7.30
2023-02-11T13:03:02.602Z,7.20
2023-02-11T13:05:47.510Z,7.10
2023-02-11T13:08:20.227Z,7.10
2023-02-11T13:10:52.294Z,7.30
2023-02-11T13:13:35.692Z,7.10
2023-02-11T13:16:14.449Z,7.10
2023-02-11T13:18:57.669Z,7.10
2023-02-11T13:21:57.560Z,7.10
2023-02-11T13:24:47.904Z,7.20
2023-02-11T13:27:26.629Z,7.30
2023-02-11T13:30:26.263Z,7.20
2023-02-11T13:32:55.756Z,7.20
2023-02-11T13:35:37.061Z,7.00
2023-02-11T13:38:17.109Z,7.00
2023-02-11T13:40:45.136Z,7.00
2023-02-11T13:43:23.631Z,7.00
2023-02-11T13:45:52.559Z,7.00
2023-02-11T13:48:32.137Z,7.00
2023-02-11T13:51:06.986Z,6.90
2023-02-11T13:53:55.246Z,7.00
2023-02-11T13:56:27.684Z,7.00
2023-02-11T13:58:55.200Z,6.90
2023-02-11T14:01:39.773Z,7.00
2023-02-11T14:04:42.505Z,6.90
2023-02-11T14:07:50.627Z,6.90
2023-02-11T14:10:38.976Z,6.80
2023-02-11T14:13:18.321Z,6.80
2023-02-11T14:15:46.526Z,6.80
2023-02-11T14:18:45.545Z,6.80
2023-02-11T14:21:19.093Z,6.80
2023-02-11T14:23:47.072Z,6.70
2023-02-11T14:26:27.558Z,6.70
2023-02-11T14:28:58.119Z,6.70
2023-02-11T14:31:30.543Z,6.60
2023-02-11T14:34:03.073Z,6.60
2023-02-11T14:36:50.421Z,6.60
2023-02-11T14:39:45.357Z,6.60
2023-02-11T14:42:22.804Z,6.60
2023-02-11T14:44:51.869Z,6.50
2023-02-11T14:47:28.240Z,6.50
2023-02-11T14:49:55.376Z,6.50
2023-02-11T14:52:31.973Z,6.40
2023-02-11T14:55:29.277Z,6.30
2023-02-11T14:58:19.348Z,6.30
2023-02-11T15:00:58.899Z,6.20
2023-02-11T15:03:38.040Z,6.10
2023-02-11T15:06:17.310Z,6.00
2023-02-11T15:08:50.843Z,6.00
2023-02-11T15:11:21.691Z,5.90
2023-02-11T15:13:51.114Z,5.80
2023-02-11T15:16:25.057Z,5.80
2023-02-11T15:18:58.262Z,5.70
2023-02-11T15:21:29.792Z,5.70
2023-02-11T15:24:23.788Z,5.60
2023-02-11T15:27:00.070Z,5.60
2023-02-11T15:29:35.080Z,5.60
2023-02-11T15:32:12.989Z,5.60
2023-02-11T15:34:40.683Z,5.60
2023-02-11T15:37:08.037Z,5.50
2023-02-11T15:39:40.452Z,5.60
2023-02-11T15:42:38.081Z,5.50
2023-02-11T15:45:14.417Z,5.50
2023-02-11T15:47:55.341Z,5.50
2023-02-11T15:50:28.869Z,5.50
2023-02-11T15:52:58.919Z,5.50
2023-02-11T15:55:27.755Z,5.40
2023-02-11T15:57:57.806Z,5.60
2023-02-11T16:00:38.867Z,5.50
2023-02-11T16:03:06.134Z,5.50
2023-02-11T16:05:36.458Z,5.50
2023-02-11T16:08:24.772Z,5.50
2023-02-11T16:11:08.866Z,5.50
2023-02-11T16:13:47.264Z,5.50
2023-02-11T16:16:33.068Z,5.50
2023-02-11T16:19:05.121Z,5.50
2023-02-11T16:21:39.600Z,5.50
2023-02-11T16:24:08.123Z,5.50
2023-02-11T16:26:39.939Z,5.50
2023-02-11T16:29:17.666Z,5.50
2023-02-11T16:31:47.377Z,5.50
2023-02-11T16:34:19.444Z,5.50
2023-02-11T16:36:47.345Z,5.50
2023-02-11T16:39:15.234Z,5.50
2023-02-11T16:41:41.989Z,5.50
2023-02-11T16:44:09.250Z,5.50
2023-02-11T16:46:37.812Z,5.50
2023-02-11T16:49:26.474Z,5.50
2023-02-11T16:51:57.370Z,5.50
2023-02-11T16:54:24.422Z,5.50
2023-02-11T16:56:51.258Z,5.60
2023-02-11T16:59:18.106Z,5.50
2023-02-11T17:01:51.439Z,5.60
2023-02-11T17:04:28.588Z,5.60
2023-02-11T17:06:58.261Z,5.70
2023-02-11T17:09:30.628Z,5.70
2023-02-11T17:11:57.960Z,5.60
2023-02-11T17:14:25.855Z,5.70
2023-02-11T17:16:52.692Z,5.70
2023-02-11T17:23:06.066Z,5.70
2023-02-11T17:25:32.900Z,5.60
2023-02-11T17:28:00.167Z,5.70
2023-02-11T17:30:27.008Z,5.70
2023-02-11T17:32:53.802Z,5.70
2023-02-11T17:35:20.632Z,5.60
2023-02-11T17:37:47.422Z,5.70
2023-02-11T17:40:14.856Z,5.70
2023-02-11T17:42:41.993Z,5.70
2023-02-11T17:45:10.175Z,5.70
2023-02-11T17:47:37.729Z,5.70
2023-02-11T17:50:04.743Z,5.70
2023-02-11T17:52:31.978Z,5.60
2023-02-11T17:54:58.735Z,5.70
2023-02-11T17:57:27.051Z,5.60
2023-02-11T17:59:53.840Z,5.70
2023-02-11T18:02:21.038Z,5.70
2023-02-11T18:04:47.856Z,5.70
2023-02-11T18:07:15.038Z,5.50
2023-02-11T18:09:42.328Z,5.70
2023-02-11T18:12:09.437Z,5.70
2023-02-11T18:14:39.071Z,5.70
2023-02-11T18:17:06.417Z,5.70
2023-02-11T18:19:35.220Z,5.70
2023-02-11T18:22:04.303Z,5.60
2023-02-11T18:24:31.664Z,5.60
2023-02-11T18:26:58.461Z,5.60
2023-02-11T18:29:25.537Z,5.70
2023-02-11T18:31:57.144Z,5.70
2023-02-11T18:34:24.963Z,5.70
2023-02-11T18:36:51.900Z,5.70
2023-02-11T18:39:20.867Z,5.70
2023-02-11T18:41:57.363Z,5.50
2023-02-11T18:44:24.785Z,5.60
2023-02-11T18:46:55.176Z,5.60
2023-02-11T18:49:22.276Z,5.60
2023-02-11T18:51:49.000Z,5.70
2023-02-11T18:54:15.765Z,5.70
2023-02-11T18:56:42.558Z,5.70
2023-02-11T18:59:10.649Z,5.70
2023-02-11T19:01:40.038Z,5.70
2023-02-11T19:04:08.079Z,5.70
2023-02-11T19:06:37.341Z,5.70
2023-02-11T19:09:10.737Z,5.60
2023-02-11T19:11:52.319Z,5.70
2023-02-11T19:14:21.553Z,5.70
2023-02-11T19:16:50.702Z,5.80
2023-02-11T19:19:19.276Z,5.70
2023-02-11T19:21:47.570Z,5.70
2023-02-11T19:24:16.752Z,5.70
2023-02-11T19:26:43.604Z,5.70
2023-02-11T19:29:10.734Z,5.70
2023-02-11T19:31:38.654Z,5.70
2023-02-11T19:34:07.432Z,5.70
2023-02-11T19:36:35.331Z,5.90
2023-02-11T19:39:03.585Z,5.80
2023-02-11T19:41:31.628Z,5.80
2023-02-11T19:43:58.409Z,5.70
2023-02-11T19:46:27.206Z,5.70
2023-02-11T19:48:55.039Z,5.70
2023-02-11T19:51:22.184Z,5.70
2023-02-11T19:53:51.224Z,5.70
2023-02-11T19:56:20.749Z,5.70
2023-02-11T19:58:49.543Z,5.70
2023-02-11T20:01:19.511Z,5.70
2023-02-11T20:03:50.155Z,5.80
2023-02-11T20:06:19.307Z,5.70
2023-02-11T20:08:46.112Z,5.70
2023-02-11T20:11:17.526Z,5.80
2023-02-11T20:13:44.516Z,5.80
2023-02-11T20:16:14.585Z,5.80
2023-02-11T20:18:41.689Z,5.80
2023-02-11T20:21:09.767Z,5.70
2023-02-11T20:23:38.782Z,5.70
2023-02-11T20:26:12.959Z,5.80
2023-02-11T20:28:42.566Z,5.80
2023-02-11T20:31:13.653Z,5.80
2023-02-11T20:33:41.665Z,5.80
2023-02-11T20:36:12.559Z,5.80
2023-02-11T20:38:39.521Z,5.80
2023-02-11T20:41:14.371Z,5.90
2023-02-11T20:43:43.017Z,5.90
2023-02-11T20:46:09.899Z,6.00
2023-02-11T20:48:36.853Z,5.80
2023-02-11T20:51:06.260Z,5.90
2023-02-11T20:53:35.751Z,5.90
2023-02-11T20:56:07.642Z,5.90
2023-02-11T20:58:35.343Z,6.00
2023-02-11T21:01:33.276Z,6.00
2023-02-11T21:04:06.379Z,6.00
2023-02-11T21:06:36.318Z,5.90
2023-02-11T21:09:05.025Z,5.90
2023-02-11T21:11:32.312Z,5.90
2023-02-11T21:13:59.611Z,5.90
2023-02-11T21:16:26.946Z,5.90
2023-02-11T21:18:55.426Z,6.10
2023-02-11T21:21:22.784Z,6.00
2023-02-11T21:23:49.996Z,5.90
2023-02-11T21:26:19.843Z,6.00
2023-02-11T21:28:46.682Z,5.90
2023-02-11T21:31:26.561Z,6.00
2023-02-11T21:33:56.710Z,6.00
2023-02-11T21:36:24.151Z,6.00
2023-02-11T21:38:51.167Z,6.00
2023-02-11T21:41:24.971Z,6.00
2023-02-11T21:43:53.109Z,6.00
2023-02-11T21:46:20.557Z,6.10
2023-02-11T21:48:47.756Z,6.00
2023-02-11T21:51:22.444Z,6.00
2023-02-11T21:53:57.507Z,6.10
2023-02-11T21:56:28.192Z,6.00
2023-02-11T21:58:57.864Z,6.00
2023-02-11T22:01:28.241Z,6.00
2023-02-11T22:03:55.030Z,6.00
2023-02-11T22:06:26.254Z,6.20
2023-02-11T22:08:55.770Z,6.00
2023-02-11T22:11:24.757Z,6.10
2023-02-11T22:13:56.306Z,6.10
2023-02-11T22:16:23.786Z,6.10
2023-02-11T22:18:51.573Z,6.20
2023-02-11T22:21:21.869Z,6.10
2023-02-11T22:23:49.680Z,6.20
2023-02-11T22:26:19.596Z,6.20
2023-02-11T22:28:46.738Z,6.10
2023-02-11T22:31:31.884Z,6.10
2023-02-11T22:33:59.985Z,6.10
2023-02-11T22:36:30.334Z,6.10
2023-02-11T22:39:00.889Z,6.10
2023-02-11T22:41:27.838Z,6.00
2023-02-11T22:43:55.014Z,6.00
2023-02-11T22:46:22.372Z,6.10
2023-02-11T22:48:49.956Z,6.10
2023-02-11T22:51:23.193Z,6.10
2023-02-11T22:54:11.999Z,6.10
2023-02-11T22:56:39.636Z,6.10
2023-02-11T22:59:12.256Z,6.00
2023-02-11T23:01:40.049Z,6.00
2023-02-11T23:04:09.067Z,6.00
2023-02-11T23:06:36.108Z,6.10
2023-02-11T23:09:08.957Z,6.10
2023-02-11T23:11:36.045Z,6.10
2023-02-11T23:14:03.782Z,6.10
2023-02-11T23:16:33.344Z,6.10
2023-02-11T23:19:02.703Z,6.10
2023-02-11T23:21:32.570Z,6.20
2023-02-11T23:24:08.927Z,6.20
2023-02-11T23:26:41.696Z,6.20
2023-02-11T23:29:09.727Z,6.30
2023-02-11T23:31:40.314Z,6.20
2023-02-11T23:34:08.462Z,6.10
2023-02-11T23:36:35.672Z,6.20
2023-02-11T23:39:02.699Z,6.10
2023-02-11T23:41:29.746Z,6.10
2023-02-11T23:43:57.951Z,6.10
2023-02-11T23:46:26.752Z,6.20
2023-02-11T23:48:53.882Z,6.20
2023-02-11T23:51:21.525Z,6.20
2023-02-11T23:53:50.120Z,6.30
2023-02-11T23:56:19.471Z,6.10
2023-02-11T23:58:49.380Z,6.30
